ADDS METAR Data INFO
IDs: Format: Raw Decoded Include TAF

Data at: 0744 UTC 23 Apr 2018

KADS 230735Z AUTO 34007KT 10SM CLR 12/09 A3005 RMK AO2 T01200089
KADS 230715Z AUTO 32005KT 10SM CLR 12/08 A3006 RMK AO2 T01230082
KADS 230655Z AUTO 31003KT 10SM CLR 13/08 A3006 RMK AO2 T01250081
KADS 230635Z AUTO 29004KT 10SM CLR 13/08 A3006 RMK AO2 T01290080
KADS 230615Z AUTO 29004KT 10SM CLR 13/08 A3006 RMK AO2 T01310080
KADS 230555Z AUTO 29004KT 10SM CLR 13/08 A3005 RMK AO2 T01330080 10177 20133 401920103
KADS 230535Z AUTO 28004KT 10SM CLR 14/08 A3005 RMK AO2 T01360081
KADS 230515Z AUTO 28004KT 10SM CLR 14/08 A3005 RMK AO2 T01370081
KADS 230455Z AUTO 29004KT 10SM CLR 14/08 A3005 RMK AO2 T01420080
KADS 230435Z AUTO 30004KT 10SM CLR 15/08 A3005 RMK AO2 T01460080
KADS 230415Z AUTO 30004KT 10SM CLR 15/08 A3005 RMK AO2 T01490080
KADS 230355Z AUTO 00000KT 10SM CLR 15/08 A3006 RMK AO2 T01520080
KADS 230335Z AUTO 30004KT 10SM CLR 15/08 A3006 RMK AO2 T01540080
KADS 230315Z AUTO 29003KT 10SM CLR 16/08 A3006 RMK AO2 T01580080
KADS 230247Z 29003KT 10SM SCT060 16/08 A3004
KADS 230147Z 30005KT 10SM OVC060 17/08 A3003
KADS 230053Z 32013G18KT 10SM BKN060 17/07 A3003
KADS 222347Z 32013G18KT 10SM SCT045 BKN050 18/06 A3003
KADS 222247Z 32013G18KT 10SM SCT045 BKN050 18/06 A3003
KADS 222147Z 31011G18KT 10SM SCT045 BKN050 18/06 A3003
KADS 222047Z AUTO 32012G22KT 10SM BKN045 19/07 A3004
KADS 221947Z AUTO 29014G20KT 10SM BKN043 18/06 A3006
KADS 221847Z AUTO 27011G17KT 10SM BKN040 17/07 A3007
KADS 221747Z AUTO 32013G22KT 10SM BKN034 16/06 A3010
KADS 221647Z AUTO 31014G21KT 10SM BKN030 15/06 A3011
KADS 221547Z AUTO 33014G19KT 10SM BKN024 13/06 A3011
KADS 221447Z COR 33014G22KT 10SM BKN020 13/07 A3010
KADS 221347Z 32010G20KT 10SM BKN018 11/07 A3010
KADS 221247Z 32008G16KT 10SM OVC020 11/07 A3010
KADS 221147Z 33012G18KT 7SM OVC018 11/08 A3007
KADS 221047Z 31011G16KT 7SM OVC014 12/09 A3007
KADS 221035Z AUTO 32008G14KT 10SM BKN014 OVC020 12/09 A3008 RMK AO2 T01150090
KADS 221015Z AUTO 32008KT 10SM OVC018 11/09 A3007 RMK AO2 T01130087
KADS 220955Z AUTO 34007KT 10SM OVC018 11/09 A3007 RMK AO2 T01120085
KADS 220935Z AUTO 34006G09KT 10SM BKN020 OVC025 11/08 A3007 RMK AO2 T01110084
KADS 220915Z AUTO 33011G17KT 10SM OVC018 11/08 A3007 RMK AO2 T01120083
KADS 220855Z AUTO 34013KT 10SM OVC016 11/09 A3006 RMK AO2 T01120085
KADS 220835Z AUTO 34013G18KT 10SM OVC018 11/09 A3006 RMK AO2 T01110086
KADS 220815Z AUTO 33016G21KT 10SM OVC018 11/08 A3006 RMK AO2 T01110084
KADS 220755Z AUTO 32010G14KT 10SM OVC016 11/09 A3007 RMK AO2 LTG DSNT NE T01120087
KADS 220735Z AUTO 34011G19KT 10SM OVC014 11/09 A3007 RMK AO2 T01110086
KADS 220715Z AUTO 33010KT 10SM OVC014 11/09 A3006 RMK AO2 T01120090
KADS 220655Z AUTO 34013G19KT 10SM OVC014 11/09 A3006 RMK AO2 T01110087
KADS 220635Z AUTO 33011G18KT 10SM OVC012 11/09 A3005 RMK AO2 T01110091
KADS 220615Z AUTO 34014G18KT 10SM OVC010 11/10 A3006 RMK AO2 T01130095
KADS 220555Z AUTO 34009G15KT 10SM OVC010 12/10 A3005 RMK AO2 T01170102 10170 20117 401760117
KADS 220535Z AUTO 33008G16KT 10SM OVC010 12/10 A3006 RMK AO2 T01170102
KADS 220515Z AUTO 32010G16KT 10SM OVC010 12/10 A3007 RMK AO2 LTG DSNT E T01200104
KADS 220455Z AUTO 33013G19KT 10SM OVC010 12/11 A3007 RMK AO2 T01210105
KADS 220435Z AUTO 33012KT 10SM OVC010 12/11 A3007 RMK AO2 T01200106
KADS 220415Z AUTO 33013G18KT 10SM OVC006 12/11 A3007 RMK AO2 T01200107
KADS 220355Z AUTO 32010G14KT 10SM OVC006 12/11 A3007 RMK AO2 T01200111
KADS 220335Z AUTO 32008KT 10SM OVC004 12/12 A3006 RMK AO2 T01210116
KADS 220315Z AUTO 36010KT 4SM BR OVC002 12/12 A3002 RMK AO2 T01200116
KADS 220247Z 32014G22KT 1SM BR OVC002 13/12 A3002
KADS 220205Z 32013G18KT 1SM BR OVC002 15/14 A2999
KADS 220147Z 31013G20KT 1SM BR OVC004 16/16 A2997
KADS 220047Z COR 08010G16KT 5SM RA OVC006 17/16 A2992
KADS 212347Z AUTO 03006KT 7SM OVC006 17/16 A2994
KADS 212310Z AUTO 08009KT 5SM VCTS BKN006 BKN012 17/16 A2990 RMK LTG SW THRU W
KADS 212247Z AUTO 09005KT 5SM BR SCT006 BKN015 18/16 A2992
KADS 212156Z COR 12007KT 5SM BR -RA BKN007 OVC018 18/16 A2992
KADS 212147Z AUTO 12007KT 5SM BR -RA SCT007 OVC020 17/16 A2992
KADS 212047Z AUTO 20004KT 5SM BR OVC007 17/15 A2993
KADS 211947Z AUTO 15010KT 7SM BR -RA OVC007 17/15 A2993